createdAt,value
2017-08-01T00:01:00.818Z,85.26
2017-08-01T00:02:06.679Z,84.77
2017-08-01T00:03:12.687Z,85.08
2017-08-01T00:04:18.698Z,85.48
2017-08-01T00:05:25.649Z,85.51
2017-08-01T00:06:31.664Z,85.91
2017-08-01T00:07:37.629Z,86.35
2017-08-01T00:08:43.690Z,85.67
2017-08-01T00:09:49.799Z,85.75
2017-08-01T00:10:56.446Z,85.61
2017-08-01T00:12:02.546Z,85.49
2017-08-01T00:13:08.412Z,85.36
2017-08-01T00:14:14.610Z,85.33
2017-08-01T00:15:20.768Z,85.06
2017-08-01T00:16:29.190Z,85.04
2017-08-01T00:17:35.216Z,84.22
2017-08-01T00:18:41.390Z,83.93
2017-08-01T00:19:47.446Z,83.54
2017-08-01T00:20:54.074Z,83.20
2017-08-01T00:22:00.765Z,82.84
2017-08-01T00:23:06.789Z,83.39
2017-08-01T00:24:13.030Z,84.11
2017-08-01T00:25:19.106Z,84.27
2017-08-01T00:26:25.725Z,84.80
2017-08-01T00:27:31.731Z,85.10
2017-08-01T00:28:37.824Z,85.20
2017-08-01T00:29:43.905Z,84.75
2017-08-01T00:30:52.043Z,84.50
2017-08-01T00:31:58.058Z,84.76
2017-08-01T00:33:04.180Z,85.61
2017-08-01T00:34:10.190Z,85.63
2017-08-01T00:35:16.281Z,85.88
2017-08-01T00:36:22.914Z,85.71
2017-08-01T00:37:29.063Z,85.80
2017-08-01T00:38:35.523Z,85.82
2017-08-01T00:39:41.542Z,86.03
2017-08-01T00:40:47.587Z,86.46
2017-08-01T00:41:53.616Z,86.59
2017-08-01T00:42:59.678Z,86.43
2017-08-01T00:44:05.977Z,86.63
2017-08-01T00:45:12.609Z,86.74
2017-08-01T00:46:18.641Z,87.01
2017-08-01T00:47:24.642Z,86.40
2017-08-01T00:48:30.727Z,86.58
2017-08-01T00:49:36.748Z,86.48
2017-08-01T00:50:43.645Z,86.00
2017-08-01T00:51:52.641Z,85.28
2017-08-01T00:52:58.654Z,85.00
2017-08-01T00:54:05.443Z,84.67
2017-08-01T00:55:11.682Z,84.40
2017-08-01T00:56:18.581Z,84.31
2017-08-01T00:57:24.593Z,85.03
2017-08-01T00:58:30.675Z,85.44
2017-08-01T00:59:36.703Z,85.27
2017-08-01T01:00:42.504Z,85.12
2017-08-01T01:01:48.370Z,84.91
2017-08-01T01:02:54.421Z,85.57
2017-08-01T01:04:00.446Z,85.91
2017-08-01T01:05:06.459Z,86.04
2017-08-01T01:06:12.566Z,86.17
2017-08-01T01:07:19.414Z,85.80
2017-08-01T01:08:25.431Z,86.20
2017-08-01T01:09:31.101Z,86.57
2017-08-01T01:10:37.116Z,86.62
2017-08-01T01:11:43.169Z,86.25
2017-08-01T01:12:49.346Z,86.29
2017-08-01T01:13:56.196Z,86.58
2017-08-01T01:15:02.311Z,85.89
2017-08-01T01:16:08.317Z,86.01
2017-08-01T01:17:14.399Z,85.84
2017-08-01T01:18:20.547Z,85.64
2017-08-01T01:19:26.551Z,85.48
2017-08-01T01:20:32.674Z,85.66
2017-08-01T01:21:38.725Z,85.70
2017-08-01T01:22:44.729Z,85.67
2017-08-01T01:23:50.777Z,85.68
2017-08-01T01:24:56.786Z,85.75
2017-08-01T01:26:03.510Z,85.92
2017-08-01T01:27:09.563Z,85.93
2017-08-01T01:28:15.640Z,85.53
2017-08-01T01:29:21.734Z,85.78
2017-08-01T01:30:27.457Z,85.63
2017-08-01T01:31:32.917Z,85.42
2017-08-01T01:32:38.652Z,85.31
2017-08-01T01:33:44.622Z,85.20
2017-08-01T01:34:50.066Z,84.83
2017-08-01T01:35:55.481Z,84.56
2017-08-01T01:37:00.774Z,84.50
2017-08-01T01:38:05.877Z,84.98
2017-08-01T01:39:13.934Z,84.66
2017-08-01T01:40:19.407Z,85.43
2017-08-01T01:41:24.737Z,85.55
2017-08-01T01:42:30.046Z,85.71
2017-08-01T01:43:35.156Z,85.84
2017-08-01T01:44:40.394Z,86.16
2017-08-01T01:45:46.297Z,86.29
2017-08-01T01:46:52.422Z,86.66
2017-08-01T01:47:57.714Z,87.00
2017-08-01T01:49:03.355Z,87.00
2017-08-01T01:50:08.495Z,87.12
2017-08-01T01:51:13.794Z,87.10
2017-08-01T01:52:19.171Z,87.23
2017-08-01T01:53:25.016Z,86.80
2017-08-01T01:54:30.453Z,86.55
2017-08-01T01:55:36.491Z,86.56
2017-08-01T01:56:42.509Z,86.64
2017-08-01T01:57:48.689Z,86.39
2017-08-01T01:58:55.483Z,85.92
2017-08-01T02:00:01.529Z,85.22
2017-08-01T02:01:07.417Z,84.38
2017-08-01T02:02:13.510Z,84.13
2017-08-01T02:03:19.577Z,84.21
2017-08-01T02:04:25.405Z,84.10
2017-08-01T02:05:31.419Z,83.08
2017-08-01T02:06:37.476Z,82.05
2017-08-01T02:07:43.712Z,81.86
2017-08-01T02:08:50.299Z,81.87
2017-08-01T02:09:55.760Z,81.41
2017-08-01T02:11:01.778Z,80.24
2017-08-01T02:12:07.955Z,80.47
2017-08-01T02:13:14.338Z,79.44
2017-08-01T02:14:20.355Z,79.58
2017-08-01T02:15:26.105Z,78.89
2017-08-01T02:16:32.217Z,79.53
2017-08-01T02:17:38.320Z,79.28
2017-08-01T02:18:44.478Z,78.93
2017-08-01T02:19:50.636Z,79.00
2017-08-01T02:20:55.975Z,79.49
2017-08-01T02:22:02.185Z,79.34
2017-08-01T02:23:17.447Z,78.28
2017-08-01T02:24:23.151Z,78.57
2017-08-01T02:25:28.838Z,78.06
2017-08-01T02:26:34.721Z,78.83
2017-08-01T02:27:40.725Z,79.68
2017-08-01T02:28:46.769Z,80.00
2017-08-01T02:29:53.003Z,80.55
2017-08-01T02:30:58.694Z,79.79
2017-08-01T02:32:04.372Z,78.06
2017-08-01T02:33:10.401Z,78.49
2017-08-01T02:34:16.077Z,79.00
2017-08-01T02:35:22.179Z,78.73
2017-08-01T02:36:27.855Z,78.46
2017-08-01T02:37:33.858Z,79.53
2017-08-01T02:38:40.013Z,79.13
2017-08-01T02:39:46.072Z,79.51
2017-08-01T02:40:52.186Z,77.68
2017-08-01T02:41:58.180Z,77.16
2017-08-01T02:43:04.197Z,77.40
2017-08-01T02:44:10.256Z,76.79
2017-08-01T02:45:16.033Z,78.61
2017-08-01T02:46:22.226Z,77.77
2017-08-01T02:47:28.261Z,76.93
2017-08-01T02:48:34.021Z,76.09
2017-08-01T02:49:40.084Z,76.02
2017-08-01T02:50:46.150Z,76.98
2017-08-01T02:51:52.185Z,77.37
2017-08-01T02:52:58.284Z,77.92
2017-08-01T02:54:04.417Z,78.09
2017-08-01T02:55:10.522Z,78.08
2017-08-01T02:56:17.238Z,78.37
2017-08-01T02:57:24.036Z,77.23
2017-08-01T02:58:30.022Z,76.84
2017-08-01T02:59:36.120Z,77.74
2017-08-01T03:00:42.109Z,78.20
2017-08-01T03:01:47.937Z,79.51
2017-08-01T03:02:53.927Z,79.50
2017-08-01T03:03:59.899Z,78.27
2017-08-01T03:05:05.874Z,77.82
2017-08-01T03:06:11.865Z,77.55
2017-08-01T03:07:17.910Z,77.87
2017-08-01T03:08:24.620Z,77.78
2017-08-01T03:09:30.715Z,77.93
2017-08-01T03:10:36.817Z,78.28
2017-08-01T03:11:43.670Z,78.33
2017-08-01T03:12:49.881Z,78.43
2017-08-01T03:13:55.951Z,79.18
2017-08-01T03:15:02.046Z,79.89
2017-08-01T03:16:08.054Z,79.82
2017-08-01T03:17:14.215Z,80.06
2017-08-01T03:18:20.213Z,80.17
2017-08-01T03:19:26.996Z,79.63
2017-08-01T03:20:32.997Z,79.40
2017-08-01T03:21:39.001Z,78.74
2017-08-01T03:22:45.048Z,79.17
2017-08-01T03:23:51.078Z,78.83
2017-08-01T03:24:57.086Z,77.51
2017-08-01T03:26:03.750Z,76.76
2017-08-01T03:27:09.761Z,76.07
2017-08-01T03:28:16.533Z,75.02
2017-08-01T03:29:23.493Z,75.63
2017-08-01T03:30:29.495Z,76.00
2017-08-01T03:31:36.337Z,75.46
2017-08-01T03:32:42.359Z,74.57
2017-08-01T03:33:48.508Z,74.38
2017-08-01T03:34:54.594Z,74.15
2017-08-01T03:36:00.599Z,74.75
2017-08-01T03:37:07.231Z,74.15
2017-08-01T03:38:13.244Z,74.16
2017-08-01T03:39:19.564Z,73.93
2017-08-01T03:40:25.881Z,73.67
2017-08-01T03:41:32.057Z,73.70
2017-08-01T03:42:38.949Z,73.16
2017-08-01T03:43:45.054Z,73.08
2017-08-01T03:44:51.823Z,73.49
2017-08-01T03:45:57.849Z,73.63
2017-08-01T03:47:04.103Z,73.83
2017-08-01T03:48:10.192Z,73.66
2017-08-01T03:49:16.955Z,73.87
2017-08-01T03:50:24.272Z,74.03
2017-08-01T03:51:31.971Z,74.06
2017-08-01T03:52:38.553Z,74.15
2017-08-01T03:53:44.596Z,73.67
2017-08-01T03:54:50.606Z,74.07
2017-08-01T03:55:56.674Z,73.84
2017-08-01T03:57:02.677Z,74.07
2017-08-01T03:58:08.756Z,73.96
2017-08-01T03:59:15.494Z,74.35
2017-08-01T04:00:21.521Z,74.41
2017-08-01T04:01:27.361Z,74.52
2017-08-01T04:02:34.328Z,74.40
2017-08-01T04:03:41.182Z,74.66
2017-08-01T04:04:47.218Z,74.65
2017-08-01T04:05:53.288Z,74.47
2017-08-01T04:06:59.345Z,74.80
2017-08-01T04:08:05.463Z,75.51
2017-08-01T04:09:11.497Z,75.66
2017-08-01T04:10:17.493Z,77.00
2017-08-01T04:11:23.604Z,79.17
2017-08-01T04:12:29.910Z,80.10
2017-08-01T04:13:35.911Z,81.74
2017-08-01T04:14:41.911Z,81.89
2017-08-01T04:15:48.593Z,81.88
2017-08-01T04:16:54.594Z,82.27
2017-08-01T04:18:00.673Z,83.43
2017-08-01T04:19:07.347Z,83.91
2017-08-01T04:20:14.093Z,84.05
2017-08-01T04:21:20.261Z,84.09
2017-08-01T04:22:33.491Z,84.06
2017-08-01T04:23:43.296Z,85.52
2017-08-01T04:24:52.544Z,84.65
2017-08-01T04:26:00.055Z,84.48
2017-08-01T04:27:07.893Z,85.17
2017-08-01T04:28:16.333Z,86.02
2017-08-01T04:29:22.498Z,85.73
2017-08-01T04:30:35.459Z,86.26
2017-08-01T04:31:41.928Z,86.56
2017-08-01T04:32:48.251Z,87.35
2017-08-01T04:33:54.351Z,87.49
2017-08-01T04:35:00.378Z,87.94
2017-08-01T04:36:07.191Z,88.16
2017-08-01T04:37:13.904Z,88.85
2017-08-01T04:38:19.906Z,89.37
2017-08-01T04:39:25.926Z,88.79
2017-08-01T04:40:32.751Z,88.25
2017-08-01T04:41:39.497Z,88.97
2017-08-01T04:42:45.760Z,88.90
2017-08-01T04:43:53.850Z,88.55
2017-08-01T04:45:06.188Z,87.88
2017-08-01T04:46:12.296Z,88.12
2017-08-01T04:47:18.636Z,88.27
2017-08-01T04:48:25.975Z,88.06
2017-08-01T04:49:31.998Z,88.89
2017-08-01T04:50:38.479Z,89.69
2017-08-01T04:51:44.521Z,89.07
2017-08-01T04:52:50.525Z,89.24
2017-08-01T04:53:56.538Z,88.86
2017-08-01T04:55:02.561Z,88.62
2017-08-01T04:56:08.568Z,88.67
2017-08-01T04:57:14.638Z,88.55
2017-08-01T04:58:20.822Z,89.29
2017-08-01T04:59:26.846Z,89.45
2017-08-01T05:00:32.853Z,89.83
2017-08-01T05:01:38.666Z,89.59
2017-08-01T05:02:44.718Z,88.59
2017-08-01T05:03:50.734Z,87.33
2017-08-01T05:04:56.837Z,86.87
2017-08-01T05:06:02.951Z,86.59
2017-08-01T05:07:08.962Z,87.07
2017-08-01T05:08:15.113Z,87.79
2017-08-01T05:09:21.122Z,86.45
2017-08-01T05:10:27.383Z,87.25
2017-08-01T05:11:33.395Z,86.76
2017-08-01T05:12:39.389Z,88.13
2017-08-01T05:13:46.114Z,87.70
2017-08-01T05:14:52.126Z,87.51
2017-08-01T05:15:58.136Z,87.73
2017-08-01T05:17:04.226Z,87.55
2017-08-01T05:18:10.243Z,87.30
2017-08-01T05:19:16.267Z,87.72
2017-08-01T05:20:22.419Z,88.19
2017-08-01T05:21:28.441Z,87.58
2017-08-01T05:22:34.574Z,88.11
2017-08-01T05:23:40.641Z,87.37
2017-08-01T05:24:46.822Z,87.57
2017-08-01T05:25:52.834Z,88.06
2017-08-01T05:26:58.883Z,88.37
2017-08-01T05:28:05.265Z,87.81
2017-08-01T05:29:11.428Z,86.05
2017-08-01T05:30:17.493Z,86.34
2017-08-01T05:31:23.402Z,86.71
2017-08-01T05:32:29.447Z,87.28
2017-08-01T05:33:35.468Z,87.02
2017-08-01T05:34:42.244Z,88.20
2017-08-01T05:35:48.362Z,87.49
2017-08-01T05:36:54.496Z,87.44
2017-08-01T05:38:00.513Z,88.06
2017-08-01T05:39:06.179Z,87.90
2017-08-01T05:40:12.253Z,88.13
2017-08-01T05:41:18.327Z,87.85
2017-08-01T05:42:24.372Z,86.92
2017-08-01T05:43:30.459Z,87.38
2017-08-01T05:44:37.057Z,86.52
2017-08-01T05:45:43.071Z,86.47
2017-08-01T05:46:49.833Z,86.70
2017-08-01T05:47:55.860Z,87.39
2017-08-01T05:49:01.869Z,86.17
2017-08-01T05:50:08.050Z,86.63
2017-08-01T05:51:14.925Z,86.57
2017-08-01T05:52:21.155Z,86.05
2017-08-01T05:53:27.927Z,85.49
2017-08-01T05:54:33.736Z,86.25
2017-08-01T05:55:39.754Z,86.52
2017-08-01T05:56:45.777Z,87.08
2017-08-01T05:57:51.846Z,87.95
2017-08-01T05:58:57.937Z,87.92
2017-08-01T06:00:04.145Z,87.76
2017-08-01T06:01:10.759Z,87.39
2017-08-01T06:02:16.787Z,88.34
2017-08-01T06:03:23.690Z,88.83
2017-08-01T06:04:29.789Z,87.64
2017-08-01T06:05:35.951Z,86.72
2017-08-01T06:06:42.450Z,85.60
2017-08-01T06:07:48.480Z,85.91
2017-08-01T06:08:54.569Z,86.43
2017-08-01T06:10:00.710Z,86.68
2017-08-01T06:11:06.795Z,86.61
2017-08-01T06:12:12.884Z,86.17
2017-08-01T06:13:18.787Z,86.07
2017-08-01T06:14:24.964Z,86.92
2017-08-01T06:15:30.784Z,86.62
2017-08-01T06:16:36.673Z,86.55
2017-08-01T06:17:42.793Z,86.07
2017-08-01T06:18:48.801Z,86.00
2017-08-01T06:19:54.901Z,85.97
2017-08-01T06:21:01.586Z,87.70
2017-08-01T06:22:07.421Z,88.01
2017-08-01T06:23:13.439Z,86.52
2017-08-01T06:24:19.315Z,86.63
2017-08-01T06:25:25.363Z,86.19
2017-08-01T06:26:31.994Z,85.62
2017-08-01T06:27:38.486Z,85.96
2017-08-01T06:28:45.274Z,86.40
2017-08-01T06:29:51.441Z,85.11
2017-08-01T06:30:57.781Z,86.17
2017-08-01T06:32:03.829Z,86.03
2017-08-01T06:33:09.843Z,86.57
2017-08-01T06:34:15.854Z,85.27
2017-08-01T06:35:21.915Z,85.69
2017-08-01T06:36:27.968Z,87.46
2017-08-01T06:37:34.077Z,87.57
2017-08-01T06:38:40.152Z,87.39
2017-08-01T06:39:46.010Z,86.91
2017-08-01T06:40:52.038Z,85.23
2017-08-01T06:41:58.150Z,84.69
2017-08-01T06:43:04.197Z,85.05
2017-08-01T06:44:10.839Z,84.66
2017-08-01T06:45:17.510Z,84.18
2017-08-01T06:46:23.723Z,83.83
2017-08-01T06:47:29.861Z,83.16
2017-08-01T06:48:36.427Z,83.15
2017-08-01T06:49:42.530Z,82.86
2017-08-01T06:50:48.378Z,83.38
2017-08-01T06:51:54.404Z,83.56
2017-08-01T06:53:00.482Z,83.49
2017-08-01T06:54:06.522Z,83.39
2017-08-01T06:55:12.558Z,83.52
2017-08-01T06:56:18.566Z,83.95
2017-08-01T06:57:24.629Z,84.35
2017-08-01T06:58:30.641Z,85.38
2017-08-01T06:59:36.655Z,85.59
2017-08-01T07:00:42.663Z,85.32
2017-08-01T07:01:48.941Z,85.71
2017-08-01T07:02:55.006Z,85.53
2017-08-01T07:04:01.176Z,85.03
2017-08-01T07:05:07.240Z,84.43
2017-08-01T07:06:13.253Z,84.48
2017-08-01T07:07:19.352Z,84.54
2017-08-01T07:08:25.762Z,84.39
2017-08-01T07:09:31.878Z,84.40
2017-08-01T07:10:37.983Z,84.48
2017-08-01T07:11:44.010Z,84.27
2017-08-01T07:12:50.349Z,83.68
2017-08-01T07:13:57.179Z,83.58
2017-08-01T07:15:03.230Z,83.18
2017-08-01T07:16:09.872Z,83.47
2017-08-01T07:17:15.887Z,83.86
2017-08-01T07:18:21.948Z,84.00
2017-08-01T07:19:27.969Z,84.51
2017-08-01T07:20:34.069Z,85.77
2017-08-01T07:21:40.198Z,85.26
2017-08-01T07:22:46.283Z,84.71
2017-08-01T07:23:52.297Z,85.00
2017-08-01T07:24:58.453Z,84.45
2017-08-01T07:26:04.676Z,84.37
2017-08-01T07:27:10.685Z,84.84
2017-08-01T07:28:16.693Z,84.19
2017-08-01T07:29:22.739Z,83.87
2017-08-01T07:30:28.897Z,84.62
2017-08-01T07:31:34.912Z,85.28
2017-08-01T07:32:41.049Z,85.08
2017-08-01T07:33:47.055Z,84.03
2017-08-01T07:34:53.110Z,84.14
2017-08-01T07:35:59.174Z,84.33
2017-08-01T07:37:05.063Z,84.87
2017-08-01T07:38:11.650Z,84.94
2017-08-01T07:39:17.646Z,84.64
2017-08-01T07:40:24.298Z,84.62
2017-08-01T07:41:30.334Z,83.79
2017-08-01T07:42:36.357Z,84.29
2017-08-01T07:43:43.141Z,84.03
2017-08-01T07:44:49.809Z,83.91
2017-08-01T07:45:55.815Z,83.78
2017-08-01T07:47:01.903Z,84.00
2017-08-01T07:48:07.934Z,83.56
2017-08-01T07:49:13.998Z,83.90
2017-08-01T07:50:20.758Z,83.95
2017-08-01T07:51:26.940Z,83.70
2017-08-01T07:52:33.526Z,83.71
2017-08-01T07:53:39.524Z,83.12
2017-08-01T07:54:45.545Z,82.71
2017-08-01T07:55:51.547Z,83.10
2017-08-01T07:56:57.615Z,83.29
2017-08-01T07:58:03.631Z,83.12
2017-08-01T07:59:09.668Z,83.84
2017-08-01T08:00:15.697Z,84.47
2017-08-01T08:01:21.791Z,84.59
2017-08-01T08:02:27.842Z,84.49
2017-08-01T08:03:34.659Z,85.12
2017-08-01T08:04:40.690Z,84.83
2017-08-01T08:05:46.803Z,84.52
2017-08-01T08:06:53.378Z,83.64
2017-08-01T08:07:59.441Z,84.56
2017-08-01T08:09:04.736Z,84.05
2017-08-01T08:10:10.738Z,84.54
2017-08-01T08:11:16.747Z,83.68
2017-08-01T08:12:22.862Z,83.99
2017-08-01T08:13:29.007Z,85.11
2017-08-01T08:14:35.065Z,85.58
2017-08-01T08:15:41.082Z,85.55
2017-08-01T08:16:47.090Z,85.05
2017-08-01T08:17:53.106Z,83.14
2017-08-01T08:18:59.136Z,82.61
2017-08-01T08:20:05.938Z,82.35
2017-08-01T08:21:11.666Z,81.91
2017-08-01T08:22:17.469Z,81.08
2017-08-01T08:23:24.470Z,81.16
2017-08-01T08:24:30.526Z,81.55
2017-08-01T08:25:36.569Z,81.20
2017-08-01T08:26:42.670Z,81.50
2017-08-01T08:27:48.799Z,81.14
2017-08-01T08:28:54.825Z,81.06
2017-08-01T08:30:01.042Z,81.42
2017-08-01T08:31:07.066Z,81.24
2017-08-01T08:32:13.094Z,81.41
2017-08-01T08:33:19.249Z,81.39
2017-08-01T08:34:25.923Z,81.19
2017-08-01T08:35:32.657Z,80.21
2017-08-01T08:36:38.743Z,79.22
2017-08-01T08:37:44.854Z,79.22
2017-08-01T08:38:50.901Z,78.85
2017-08-01T08:39:56.973Z,78.29
2017-08-01T08:41:03.018Z,77.43
2017-08-01T08:42:09.038Z,76.51
2017-08-01T08:43:15.045Z,75.77
2017-08-01T08:44:21.122Z,75.66
2017-08-01T08:45:27.165Z,75.34
2017-08-01T08:46:33.263Z,74.31
2017-08-01T08:47:40.075Z,74.75
2017-08-01T08:48:46.081Z,74.26
2017-08-01T08:49:52.859Z,73.75
2017-08-01T08:50:58.897Z,73.46
2017-08-01T08:52:05.021Z,73.28
2017-08-01T08:53:11.725Z,72.81
2017-08-01T08:54:17.814Z,72.83
2017-08-01T08:55:23.831Z,72.38
2017-08-01T08:56:29.847Z,72.14
2017-08-01T08:57:35.759Z,71.99
2017-08-01T08:58:41.796Z,71.96
2017-08-01T08:59:47.802Z,72.27
2017-08-01T09:00:54.034Z,72.70
2017-08-01T09:02:00.071Z,72.81
2017-08-01T09:03:06.106Z,72.45
2017-08-01T09:04:12.123Z,73.68
2017-08-01T09:05:18.165Z,73.64
2017-08-01T09:06:24.925Z,73.20
2017-08-01T09:07:30.930Z,72.81
2017-08-01T09:08:37.630Z,72.69
2017-08-01T09:09:43.694Z,72.21
2017-08-01T09:10:49.754Z,72.05
2017-08-01T09:11:55.772Z,72.33
2017-08-01T09:13:01.597Z,71.68
2017-08-01T09:14:07.666Z,71.12
2017-08-01T09:15:13.747Z,70.71
2017-08-01T09:16:19.758Z,70.04
2017-08-01T09:17:31.698Z,69.80
2017-08-01T09:18:37.783Z,70.88
2017-08-01T09:19:43.826Z,71.22
2017-08-01T09:20:49.865Z,71.21
2017-08-01T09:21:55.882Z,70.82
2017-08-01T09:23:01.922Z,70.88
2017-08-01T09:24:07.938Z,71.03
2017-08-01T09:25:14.761Z,71.30
2017-08-01T09:26:20.765Z,70.70
2017-08-01T09:27:26.858Z,70.24
2017-08-01T09:28:33.773Z,70.38
2017-08-01T09:29:39.781Z,70.60
2017-08-01T09:30:45.851Z,70.77
2017-08-01T09:31:51.901Z,70.88
2017-08-01T09:32:58.537Z,70.60
2017-08-01T09:34:04.569Z,70.07
2017-08-01T09:35:10.591Z,69.20
2017-08-01T09:36:16.709Z,69.47
2017-08-01T09:37:22.721Z,69.03
2017-08-01T09:38:28.753Z,68.30
2017-08-01T09:39:34.848Z,67.86
2017-08-01T09:40:41.554Z,67.89
2017-08-01T09:41:47.619Z,67.42
2017-08-01T09:42:53.807Z,67.81
2017-08-01T09:43:59.816Z,67.91
2017-08-01T09:45:05.839Z,67.60
2017-08-01T09:46:11.919Z,67.20
2017-08-01T09:47:17.966Z,67.20
2017-08-01T09:48:23.986Z,66.65
2017-08-01T09:49:30.121Z,66.91
2017-08-01T09:50:36.227Z,66.66
2017-08-01T09:51:42.351Z,66.29
2017-08-01T09:52:48.407Z,66.28
2017-08-01T09:53:54.420Z,66.31
2017-08-01T09:55:00.476Z,67.16
2017-08-01T09:56:06.555Z,68.58
2017-08-01T09:57:12.607Z,69.03
2017-08-01T09:58:19.278Z,69.07
2017-08-01T09:59:25.306Z,68.26
2017-08-01T10:00:32.193Z,68.26
2017-08-01T10:01:38.185Z,67.08
2017-08-01T10:02:44.251Z,66.81
2017-08-01T10:03:50.319Z,66.35
2017-08-01T10:04:56.421Z,66.46
2017-08-01T10:06:02.529Z,65.92
2017-08-01T10:07:08.541Z,65.70
2017-08-01T10:08:14.567Z,65.65
2017-08-01T10:09:20.409Z,65.23
2017-08-01T10:10:26.409Z,65.10
2017-08-01T10:11:33.178Z,65.07
2017-08-01T10:12:39.192Z,65.22
2017-08-01T10:13:45.201Z,63.26
2017-08-01T10:14:51.065Z,62.85
2017-08-01T10:15:57.062Z,63.05
2017-08-01T10:17:02.910Z,63.56
2017-08-01T10:18:08.909Z,63.41
2017-08-01T10:19:14.946Z,62.92
2017-08-01T10:20:21.006Z,63.42
2017-08-01T10:21:27.626Z,63.83
2017-08-01T10:22:33.631Z,63.76
2017-08-01T10:23:39.367Z,63.65
2017-08-01T10:24:45.470Z,63.06
2017-08-01T10:25:51.518Z,62.98
2017-08-01T10:26:56.898Z,62.79
2017-08-01T10:28:02.916Z,63.39
2017-08-01T10:29:08.660Z,63.33
2017-08-01T10:30:14.384Z,63.06
2017-08-01T10:31:20.421Z,63.35
2017-08-01T10:32:26.125Z,62.95
2017-08-01T10:33:31.984Z,62.89
2017-08-01T10:34:37.783Z,62.38
2017-08-01T10:35:43.798Z,62.73
2017-08-01T10:36:49.926Z,62.98
2017-08-01T10:37:56.427Z,63.86
2017-08-01T10:39:02.150Z,63.80
2017-08-01T10:40:07.898Z,63.48
2017-08-01T10:41:13.708Z,63.05
2017-08-01T10:42:19.523Z,62.71
2017-08-01T10:43:25.591Z,61.68
2017-08-01T10:44:31.604Z,59.92
2017-08-01T10:45:37.329Z,60.04
2017-08-01T10:46:43.343Z,60.46
2017-08-01T10:47:49.165Z,60.51
2017-08-01T10:48:54.876Z,59.59
2017-08-01T10:50:00.901Z,59.66
2017-08-01T10:51:07.039Z,59.78
2017-08-01T10:52:12.767Z,59.61
2017-08-01T10:53:18.573Z,59.48
2017-08-01T10:54:24.298Z,60.29
2017-08-01T10:55:30.067Z,60.53
2017-08-01T10:56:36.169Z,60.09
2017-08-01T10:57:41.953Z,60.42
2017-08-01T10:58:48.055Z,60.05
2017-08-01T10:59:53.782Z,59.20
2017-08-01T11:00:59.501Z,58.64
2017-08-01T11:02:05.221Z,58.95
2017-08-01T11:03:10.941Z,58.94
2017-08-01T11:04:16.759Z,58.38
2017-08-01T11:05:22.575Z,58.11
2017-08-01T11:06:28.302Z,58.08
2017-08-01T11:07:34.434Z,58.10
2017-08-01T11:08:40.919Z,57.97
2017-08-01T11:09:46.701Z,57.93
2017-08-01T11:10:52.464Z,57.71
2017-08-01T11:11:58.245Z,57.31
2017-08-01T11:13:04.002Z,57.01
2017-08-01T11:14:09.721Z,56.40
2017-08-01T11:15:15.505Z,56.01
2017-08-01T11:16:21.249Z,55.93
2017-08-01T11:17:27.681Z,55.64
2017-08-01T11:18:33.399Z,56.30
2017-08-01T11:19:39.129Z,56.15
2017-08-01T11:20:44.992Z,55.82
2017-08-01T11:21:50.725Z,55.56
2017-08-01T11:22:56.432Z,56.11
2017-08-01T11:24:02.154Z,55.86
2017-08-01T11:25:07.959Z,55.24
2017-08-01T11:26:13.804Z,55.24
2017-08-01T11:27:19.533Z,55.25
2017-08-01T11:28:25.246Z,53.94
2017-08-01T11:29:30.978Z,52.02
2017-08-01T11:30:36.699Z,50.28
2017-08-01T11:31:43.055Z,50.73
2017-08-01T11:32:48.900Z,50.78
2017-08-01T11:33:54.664Z,50.96
2017-08-01T11:35:00.384Z,51.65
2017-08-01T11:36:06.095Z,51.13
2017-08-01T11:37:11.850Z,49.85
2017-08-01T11:38:17.585Z,49.64
2017-08-01T11:39:23.321Z,49.51
2017-08-01T11:40:29.825Z,48.95
2017-08-01T11:41:35.646Z,49.16
2017-08-01T11:42:42.113Z,49.52
2017-08-01T11:43:47.829Z,49.96
2017-08-01T11:44:53.614Z,50.48
2017-08-01T11:45:59.335Z,49.76
2017-08-01T11:47:05.054Z,50.66
2017-08-01T11:48:10.819Z,49.29
2017-08-01T11:49:17.178Z,49.09
2017-08-01T11:50:23.013Z,49.19
2017-08-01T11:51:28.733Z,48.57
2017-08-01T11:52:34.454Z,48.95
2017-08-01T11:53:40.299Z,49.01
2017-08-01T11:54:46.633Z,48.26
2017-08-01T11:55:53.104Z,47.98
2017-08-01T11:56:58.847Z,47.82
2017-08-01T11:58:04.563Z,48.25
2017-08-01T11:59:10.332Z,47.54
2017-08-01T12:00:16.050Z,46.87
2017-08-01T12:01:21.839Z,46.73
2017-08-01T12:02:27.554Z,46.53
2017-08-01T12:03:33.279Z,46.52
2017-08-01T12:04:39.046Z,47.01
2017-08-01T12:05:44.639Z,48.32
2017-08-01T12:06:50.441Z,48.32
2017-08-01T12:07:56.240Z,48.32
2017-08-01T12:09:01.971Z,48.31
2017-08-01T12:10:07.521Z,48.07
2017-08-01T12:11:13.320Z,48.20
2017-08-01T12:12:19.673Z,48.16
2017-08-01T12:13:25.430Z,47.55
2017-08-01T12:14:31.162Z,47.40
2017-08-01T12:15:36.663Z,47.74
2017-08-01T12:16:42.858Z,46.83
2017-08-01T12:17:48.584Z,46.46
2017-08-01T12:18:54.337Z,45.58
2017-08-01T12:20:00.046Z,46.02
2017-08-01T12:21:05.790Z,45.18
2017-08-01T12:22:11.503Z,45.34
2017-08-01T12:23:17.214Z,45.52
2017-08-01T12:24:23.037Z,45.46
2017-08-01T12:25:28.838Z,45.13
2017-08-01T12:26:34.605Z,44.00
2017-08-01T12:27:40.401Z,44.06
2017-08-01T12:28:46.234Z,43.22
2017-08-01T12:29:52.045Z,43.74
2017-08-01T12:30:58.957Z,44.15
2017-08-01T12:32:04.797Z,44.08
2017-08-01T12:33:10.578Z,44.12
2017-08-01T12:34:16.321Z,44.37
2017-08-01T12:35:22.042Z,43.68
2017-08-01T12:36:28.802Z,43.46
2017-08-01T12:37:34.557Z,43.16
2017-08-01T12:38:40.369Z,42.49
2017-08-01T12:39:46.166Z,42.38
2017-08-01T12:40:51.895Z,42.52
2017-08-01T12:41:57.626Z,42.91
2017-08-01T12:43:03.395Z,42.73
2017-08-01T12:44:09.124Z,42.65
2017-08-01T12:45:15.450Z,42.98
2017-08-01T12:46:21.173Z,43.16
2017-08-01T12:47:27.000Z,43.32
2017-08-01T12:48:32.769Z,43.09
2017-08-01T12:49:38.597Z,43.86
2017-08-01T12:50:44.405Z,43.41
2017-08-01T12:51:53.019Z,43.97
2017-08-01T12:53:00.071Z,44.76
2017-08-01T12:54:05.818Z,44.56
2017-08-01T12:55:11.546Z,44.67
2017-08-01T12:56:17.277Z,44.35
2017-08-01T12:57:23.086Z,43.47
2017-08-01T12:58:28.898Z,43.54
2017-08-01T12:59:34.739Z,43.64
2017-08-01T13:00:40.312Z,43.55
2017-08-01T13:01:46.039Z,43.36
2017-08-01T13:02:52.065Z,43.79
2017-08-01T13:03:57.790Z,43.84
2017-08-01T13:05:03.271Z,43.75
2017-08-01T13:06:08.990Z,43.48
2017-08-01T13:07:14.698Z,43.66
2017-08-01T13:08:20.461Z,43.83
2017-08-01T13:09:26.278Z,44.00
2017-08-01T13:10:32.804Z,44.19
2017-08-01T13:11:39.317Z,43.17
2017-08-01T13:12:45.048Z,42.96
2017-08-01T13:13:50.762Z,43.27
2017-08-01T13:14:56.480Z,43.80
2017-08-01T13:16:02.258Z,44.10
2017-08-01T13:17:07.801Z,44.22
2017-08-01T13:18:13.511Z,44.15
2017-08-01T13:19:19.298Z,43.86
2017-08-01T13:20:25.100Z,44.25
2017-08-01T13:21:30.873Z,44.26
2017-08-01T13:22:36.663Z,43.79
2017-08-01T13:23:42.389Z,43.40
2017-08-01T13:24:48.105Z,44.33
2017-08-01T13:25:53.838Z,44.26
2017-08-01T13:26:59.590Z,44.19
2017-08-01T13:28:05.392Z,44.30
2017-08-01T13:29:11.107Z,44.73
2017-08-01T13:30:16.828Z,44.86
2017-08-01T13:31:22.618Z,45.01
2017-08-01T13:32:28.383Z,45.02
2017-08-01T13:33:34.179Z,44.97
2017-08-01T13:34:40.260Z,44.60
2017-08-01T13:35:45.981Z,44.29
2017-08-01T13:36:51.710Z,44.54
2017-08-01T13:37:57.530Z,44.01
2017-08-01T13:39:03.266Z,44.50
2017-08-01T13:40:09.086Z,44.34
2017-08-01T13:41:15.256Z,44.06
2017-08-01T13:42:21.713Z,44.31
2017-08-01T13:43:27.475Z,44.90
2017-08-01T13:44:33.219Z,45.85
2017-08-01T13:45:39.714Z,45.77
2017-08-01T13:46:45.510Z,45.93
2017-08-01T13:47:51.235Z,45.07
2017-08-01T13:48:57.061Z,44.46
2017-08-01T13:50:02.808Z,44.19
2017-08-01T13:51:07.857Z,44.96
2017-08-01T13:52:13.614Z,44.75
2017-08-01T13:53:20.118Z,44.50
2017-08-01T13:54:25.960Z,44.13
2017-08-01T13:55:31.675Z,44.73
2017-08-01T13:56:37.449Z,44.43
2017-08-01T13:57:43.162Z,44.20
2017-08-01T13:58:49.548Z,44.04
2017-08-01T13:59:55.342Z,44.55
2017-08-01T14:01:01.843Z,43.87
2017-08-01T14:02:07.565Z,44.08
2017-08-01T14:03:13.415Z,44.35
2017-08-01T14:04:19.153Z,44.28
2017-08-01T14:05:24.919Z,44.46
2017-08-01T14:06:30.811Z,44.44
2017-08-01T14:07:36.588Z,44.27
2017-08-01T14:08:42.322Z,44.64
2017-08-01T14:09:48.038Z,45.26
2017-08-01T14:10:53.909Z,45.42
2017-08-01T14:11:59.670Z,45.73